createdAt,value
2019-01-28T13:55:21.756Z,0.93
2019-01-28T13:57:53.426Z,1.20
2019-01-28T14:00:28.619Z,1.10
2019-01-28T14:03:00.624Z,1.93
2019-01-28T14:05:32.677Z,1.20
2019-01-28T14:08:04.785Z,1.00
2019-01-28T14:10:36.448Z,1.13
2019-01-28T14:13:08.194Z,1.30
2019-01-28T14:15:41.796Z,1.10
2019-01-28T14:18:14.132Z,0.80
2019-01-28T14:20:46.008Z,1.27
2019-01-28T14:23:17.694Z,1.40
2019-01-28T14:25:49.319Z,1.37
2019-01-28T14:28:21.015Z,1.20
2019-01-28T14:30:52.580Z,1.10
2019-01-28T14:33:24.417Z,1.20
2019-01-28T14:35:56.149Z,1.03
2019-01-28T14:38:27.794Z,0.93
2019-01-28T14:40:59.548Z,1.00
2019-01-28T14:43:31.247Z,1.27
2019-01-28T14:46:02.879Z,0.97
2019-01-28T14:48:34.796Z,1.00
2019-01-28T14:51:07.047Z,1.10
2019-01-28T14:53:39.005Z,1.43
2019-01-28T14:56:11.954Z,1.10
2019-01-28T14:58:43.902Z,1.73
2019-01-28T15:01:15.708Z,2.30
2019-01-28T15:03:47.649Z,1.60
2019-01-28T15:06:27.488Z,1.07
2019-01-28T15:09:03.158Z,0.90
2019-01-28T15:11:36.662Z,1.53
2019-01-28T15:14:08.625Z,1.70
2019-01-28T15:16:46.815Z,1.83
2019-01-28T15:19:18.914Z,1.00
2019-01-28T15:21:50.557Z,1.80
2019-01-28T15:24:23.417Z,0.80
2019-01-28T15:26:55.418Z,1.60
2019-01-28T15:29:27.128Z,2.00
2019-01-28T15:32:03.423Z,1.30
2019-01-28T15:34:35.239Z,1.57
2019-01-28T15:37:06.967Z,1.33
2019-01-28T15:39:39.334Z,1.17
2019-01-28T15:42:11.201Z,1.10
2019-01-28T15:44:44.054Z,1.00
2019-01-28T15:47:15.813Z,1.30
2019-01-28T15:49:47.624Z,1.80
2019-01-28T15:52:19.466Z,1.80
2019-01-28T15:54:53.570Z,1.20
2019-01-28T15:57:28.060Z,2.30
2019-01-28T15:59:59.977Z,1.87
2019-01-28T16:02:31.738Z,1.50
2019-01-28T16:05:03.525Z,1.17
2019-01-28T16:07:35.321Z,1.30
2019-01-28T16:10:10.186Z,1.17
2019-01-28T16:12:41.971Z,1.17
2019-01-28T16:15:19.378Z,1.63
2019-01-28T16:17:51.217Z,1.30
2019-01-28T16:20:23.170Z,1.40
2019-01-28T16:22:56.266Z,1.40
2019-01-28T16:25:29.649Z,1.57
2019-01-28T16:28:01.741Z,1.37
2019-01-28T16:30:34.202Z,1.43
2019-01-28T16:33:06.046Z,1.40
2019-01-28T16:35:38.075Z,1.20
2019-01-28T16:38:09.698Z,1.40
2019-01-28T16:40:41.572Z,2.00
2019-01-28T16:43:13.258Z,1.60
2019-01-28T16:45:45.100Z,1.83
2019-01-28T16:48:16.727Z,1.50
2019-01-28T16:50:48.502Z,1.83
2019-01-28T16:53:20.271Z,1.27
2019-01-28T16:55:52.314Z,1.40
2019-01-28T16:58:23.877Z,1.40
2019-01-28T17:00:55.594Z,1.70
2019-01-28T17:03:31.680Z,1.87
2019-01-28T17:06:03.509Z,1.50
2019-01-28T17:08:35.107Z,1.53
2019-01-28T17:11:06.723Z,1.70
2019-01-28T17:13:38.489Z,1.90
2019-01-28T17:16:10.226Z,1.60
2019-01-28T17:18:41.900Z,1.40
2019-01-28T17:21:13.554Z,1.90
2019-01-28T17:23:45.259Z,1.63
2019-01-28T17:26:17.011Z,1.60
2019-01-28T17:28:53.820Z,2.37
2019-01-28T17:31:25.525Z,1.87
2019-01-28T17:33:58.245Z,1.87
2019-01-28T17:36:30.091Z,1.77
2019-01-28T17:39:01.765Z,1.40
2019-01-28T17:41:37.931Z,1.87
2019-01-28T17:44:09.505Z,2.10
2019-01-28T17:46:41.088Z,2.80
2019-01-28T17:49:12.717Z,2.37
2019-01-28T17:51:44.368Z,2.50
2019-01-28T17:54:15.926Z,1.67
2019-01-28T17:56:47.541Z,2.00
2019-01-28T17:59:19.154Z,2.20
2019-01-28T18:01:50.651Z,1.93
2019-01-28T18:04:22.220Z,1.97
2019-01-28T18:06:56.166Z,2.17
2019-01-28T18:09:29.386Z,2.23
2019-01-28T18:12:01.196Z,1.60
2019-01-28T18:14:33.088Z,2.23
2019-01-28T18:17:04.758Z,1.67
2019-01-28T18:19:36.395Z,1.47
2019-01-28T18:22:08.056Z,2.27
2019-01-28T18:24:40.915Z,1.70
2019-01-28T18:27:14.030Z,1.70
2019-01-28T18:29:45.687Z,1.90
2019-01-28T18:32:17.255Z,2.23
2019-01-28T18:34:48.995Z,2.13
2019-01-28T18:37:28.584Z,1.50
2019-01-28T18:40:00.276Z,2.33
2019-01-28T18:42:32.078Z,2.80
2019-01-28T18:45:03.650Z,2.00
2019-01-28T18:47:35.362Z,2.10
2019-01-28T18:50:10.022Z,1.70
2019-01-28T18:52:41.715Z,2.07
2019-01-28T18:55:13.662Z,1.70
2019-01-28T18:57:45.321Z,1.70
2019-01-28T19:00:25.775Z,2.10
2019-01-28T19:02:57.785Z,1.80
2019-01-28T19:05:47.210Z,1.93
2019-01-28T19:08:44.001Z,1.90
2019-01-28T19:11:20.754Z,1.80
2019-01-28T19:14:11.325Z,1.57
2019-01-28T19:17:11.183Z,2.03
2019-01-28T19:20:10.601Z,1.80
2019-01-28T19:22:42.235Z,1.50
2019-01-28T19:25:14.149Z,1.87
2019-01-28T19:27:45.812Z,1.47
2019-01-28T19:30:20.711Z,1.73
2019-01-28T19:32:52.405Z,1.77
2019-01-28T19:35:24.091Z,2.17
2019-01-28T19:37:55.936Z,1.73
2019-01-28T19:40:27.626Z,2.17
2019-01-28T19:42:59.306Z,2.07
2019-01-28T19:45:30.962Z,2.07
2019-01-28T19:48:02.624Z,1.90
2019-01-28T19:50:35.297Z,2.13
2019-01-28T19:53:07.780Z,1.93
2019-01-28T19:55:42.793Z,2.20
2019-01-28T19:58:14.686Z,1.93
2019-01-28T20:00:46.281Z,1.90
2019-01-28T20:03:18.026Z,2.20
2019-01-28T20:05:49.747Z,2.00
2019-01-28T20:08:24.394Z,2.10
2019-01-28T20:10:57.226Z,1.77
2019-01-28T20:13:28.868Z,1.87
2019-01-28T20:16:00.897Z,1.83
2019-01-28T20:18:32.764Z,2.37
2019-01-28T20:21:05.244Z,2.17
2019-01-28T20:23:36.990Z,2.70
2019-01-28T20:26:09.040Z,2.23
2019-01-28T20:28:43.393Z,2.30
2019-01-28T20:31:15.133Z,2.13
2019-01-28T20:33:46.865Z,2.07
2019-01-28T20:36:20.240Z,2.10
2019-01-28T20:38:51.937Z,2.20
2019-01-28T20:41:25.564Z,3.13
2019-01-28T20:43:57.494Z,2.50
2019-01-28T20:46:29.126Z,2.03
2019-01-28T20:49:03.258Z,2.13
2019-01-28T20:51:34.915Z,2.53
2019-01-28T20:54:06.640Z,2.70
2019-01-28T20:56:38.306Z,2.30
2019-01-28T20:59:11.138Z,2.80
2019-01-28T21:01:42.813Z,2.33
2019-01-28T21:04:14.450Z,2.43
2019-01-28T21:06:46.137Z,2.17
2019-01-28T21:09:20.781Z,2.60
2019-01-28T21:11:54.166Z,2.77
2019-01-28T21:14:25.884Z,2.37
2019-01-28T21:16:57.583Z,2.83
2019-01-28T21:19:29.314Z,3.33
2019-01-28T21:22:01.371Z,2.57
2019-01-28T21:24:34.515Z,2.30
2019-01-28T21:27:06.153Z,2.40
2019-01-28T21:29:37.722Z,2.20
2019-01-28T21:32:09.393Z,2.50
2019-01-28T21:34:41.007Z,2.67
2019-01-28T21:37:22.655Z,2.50
2019-01-28T21:39:55.919Z,2.20
2019-01-28T21:42:27.577Z,2.53
2019-01-28T21:44:59.249Z,2.20
2019-01-28T21:47:30.820Z,2.70
2019-01-28T21:50:02.386Z,2.60
2019-01-28T21:52:34.378Z,3.03
2019-01-28T21:55:06.573Z,3.23
2019-01-28T21:57:38.252Z,3.67
2019-01-28T22:00:10.154Z,3.93
2019-01-28T22:02:42.467Z,3.70
2019-01-28T22:05:14.146Z,4.23
2019-01-28T22:07:45.793Z,3.77
2019-01-28T22:10:17.584Z,4.27
2019-01-28T22:12:49.436Z,5.30
2019-01-28T22:15:21.356Z,5.67
2019-01-28T22:17:52.964Z,5.40
2019-01-28T22:20:24.549Z,5.93
2019-01-28T22:22:56.175Z,5.93
2019-01-28T22:25:30.554Z,5.13
2019-01-28T22:28:02.060Z,5.37
2019-01-28T22:30:33.691Z,5.30
2019-01-28T22:33:05.833Z,5.10
2019-01-28T22:35:37.403Z,5.30
2019-01-28T22:38:11.294Z,5.53
2019-01-28T22:40:42.484Z,6.03
2019-01-28T22:43:14.039Z,5.67
2019-01-28T22:45:45.588Z,6.23
2019-01-28T22:48:17.196Z,5.70
2019-01-28T22:50:48.836Z,5.60
2019-01-28T22:53:20.437Z,5.53
2019-01-28T22:55:53.082Z,6.70
2019-01-28T22:58:24.628Z,5.70
2019-01-28T23:01:24.004Z,6.60
2019-01-28T23:03:55.562Z,5.67
2019-01-28T23:06:27.082Z,5.60
2019-01-28T23:08:59.077Z,6.47
2019-01-28T23:11:32.408Z,6.53
2019-01-28T23:14:04.271Z,6.03
2019-01-28T23:16:36.061Z,6.90
2019-01-28T23:19:07.704Z,6.30
2019-01-28T23:21:39.296Z,6.00
2019-01-28T23:24:10.863Z,6.37
2019-01-28T23:26:44.141Z,7.10
2019-01-28T23:29:15.799Z,7.17
2019-01-28T23:31:47.344Z,6.57
2019-01-28T23:34:21.104Z,6.97
2019-01-28T23:36:52.589Z,8.13
2019-01-28T23:39:24.079Z,7.60
2019-01-28T23:41:55.610Z,6.57
2019-01-28T23:44:27.180Z,7.37
2019-01-28T23:47:00.139Z,6.40
2019-01-28T23:49:31.877Z,6.40
2019-01-28T23:52:03.369Z,5.70
2019-01-28T23:54:34.996Z,5.57
2019-01-28T23:57:06.567Z,6.03
2019-01-28T23:59:38.060Z,5.93
